createdAt,value
2018-08-20T00:01:44.775Z,13.27
2018-08-20T00:06:57.046Z,10.40
2018-08-20T00:12:08.088Z,15.57
2018-08-20T00:17:18.076Z,12.90
2018-08-20T00:22:27.932Z,12.27
2018-08-20T00:27:37.880Z,14.27
2018-08-20T00:32:48.623Z,10.97
2018-08-20T00:37:58.526Z,11.13
2018-08-20T00:43:08.624Z,10.50
2018-08-20T00:48:18.955Z,11.47
2018-08-20T00:53:28.787Z,10.40
2018-08-20T00:58:38.828Z,18.30
2018-08-20T01:03:48.815Z,9.13
2018-08-20T01:08:58.757Z,11.27
2018-08-20T01:14:08.664Z,12.23
2018-08-20T01:19:18.570Z,12.27
2018-08-20T01:24:28.640Z,15.80
2018-08-20T01:29:38.495Z,14.17
2018-08-20T01:34:48.425Z,12.73
2018-08-20T01:39:58.385Z,10.87
2018-08-20T01:45:08.523Z,12.90
2018-08-20T01:50:18.327Z,9.17
2018-08-20T01:55:28.683Z,8.63
2018-08-20T02:00:38.796Z,10.73
2018-08-20T02:05:48.769Z,7.90
2018-08-20T02:10:58.767Z,7.97
2018-08-20T02:16:10.145Z,10.23
2018-08-20T02:21:20.120Z,9.73
2018-08-20T02:26:30.222Z,12.43
2018-08-20T02:31:40.161Z,13.87
2018-08-20T02:36:50.155Z,14.60
2018-08-20T02:42:00.181Z,12.10
2018-08-20T02:47:10.355Z,13.70
2018-08-20T02:52:20.188Z,8.63
2018-08-20T02:57:30.176Z,9.60
2018-08-20T03:02:40.120Z,9.50
2018-08-20T03:07:50.127Z,16.23
2018-08-20T03:13:00.131Z,10.83
2018-08-20T03:18:10.590Z,9.13
2018-08-20T03:23:20.855Z,14.17
2018-08-20T03:28:30.883Z,11.67
2018-08-20T03:33:40.936Z,13.07
2018-08-20T03:38:50.907Z,17.23
2018-08-20T03:44:00.951Z,16.77
2018-08-20T03:49:11.087Z,11.33
2018-08-20T03:54:20.936Z,13.27
2018-08-20T03:59:33.975Z,10.90
2018-08-20T04:04:43.953Z,13.43
2018-08-20T04:09:53.932Z,16.53
2018-08-20T04:15:03.983Z,10.37
2018-08-20T04:20:14.007Z,12.37
2018-08-20T04:25:23.900Z,16.87
2018-08-20T04:30:33.847Z,16.67
2018-08-20T04:35:43.745Z,13.90
2018-08-20T04:40:53.766Z,18.20
2018-08-20T04:46:03.819Z,15.37
2018-08-20T04:51:14.052Z,16.10
2018-08-20T04:56:24.498Z,11.47
2018-08-20T05:01:34.511Z,12.27
2018-08-20T05:06:44.355Z,15.30
2018-08-20T05:11:54.381Z,14.30
2018-08-20T05:17:04.480Z,10.40
2018-08-20T05:22:14.550Z,13.93
2018-08-20T05:27:24.642Z,11.57
2018-08-20T05:32:34.679Z,10.23
2018-08-20T05:37:44.735Z,10.53
2018-08-20T05:42:56.188Z,10.90
2018-08-20T05:48:06.131Z,14.00
2018-08-20T05:53:16.095Z,10.87
2018-08-20T05:58:26.046Z,16.80
2018-08-20T06:03:36.366Z,12.50
2018-08-20T06:08:46.224Z,19.97
2018-08-20T06:13:56.509Z,13.07
2018-08-20T06:19:06.976Z,22.03
2018-08-20T06:24:17.039Z,12.40
2018-08-20T06:29:27.080Z,16.77
2018-08-20T06:34:37.099Z,14.57
2018-08-20T06:39:47.489Z,13.27
2018-08-20T06:44:57.835Z,14.07
2018-08-20T06:50:07.955Z,11.63
2018-08-20T06:55:17.937Z,14.23
2018-08-20T07:00:28.054Z,11.17
2018-08-20T07:05:38.258Z,18.77
2018-08-20T07:10:48.831Z,15.43
2018-08-20T07:15:58.887Z,20.20
2018-08-20T07:21:09.000Z,11.10
2018-08-20T07:26:19.153Z,15.07
2018-08-20T07:31:29.058Z,19.17
2018-08-20T07:36:39.577Z,24.97
2018-08-20T07:41:49.491Z,18.37
2018-08-20T07:46:59.616Z,26.10
2018-08-20T07:52:10.537Z,21.53
2018-08-20T07:57:20.740Z,20.37
2018-08-20T08:02:31.011Z,29.43
2018-08-20T08:07:41.440Z,18.47
2018-08-20T08:12:51.743Z,23.57
2018-08-20T08:18:01.844Z,20.37
2018-08-20T08:23:11.784Z,19.33
2018-08-20T08:28:21.727Z,18.77
2018-08-20T08:33:32.060Z,23.57
2018-08-20T08:38:42.139Z,15.43
2018-08-20T08:43:52.160Z,29.07
2018-08-20T08:49:02.116Z,32.50
2018-08-20T08:54:12.455Z,23.53
2018-08-20T08:59:23.037Z,15.77
2018-08-20T09:04:33.124Z,26.73
2018-08-20T09:09:43.416Z,24.40
2018-08-20T09:14:53.373Z,17.77
2018-08-20T09:20:03.379Z,36.50
2018-08-20T09:25:14.909Z,17.57
2018-08-20T09:30:25.104Z,33.73
2018-08-20T09:35:35.024Z,32.37
2018-08-20T09:40:45.151Z,41.13
2018-08-20T09:45:55.615Z,15.50
2018-08-20T09:51:05.619Z,19.50
2018-08-20T09:56:15.559Z,22.10
2018-08-20T10:01:25.990Z,19.73
2018-08-20T10:06:36.088Z,35.07
2018-08-20T10:11:46.145Z,29.90
2018-08-20T10:16:56.110Z,29.00
2018-08-20T10:22:06.474Z,27.10
2018-08-20T10:27:16.683Z,26.93
2018-08-20T10:32:26.600Z,24.47
2018-08-20T10:37:36.779Z,24.37
2018-08-20T10:42:46.671Z,26.50
2018-08-20T10:47:57.252Z,25.07
2018-08-20T10:53:07.237Z,23.77
2018-08-20T10:58:17.241Z,18.93
2018-08-20T11:03:27.450Z,18.80
2018-08-20T11:08:37.570Z,18.57
2018-08-20T11:13:47.874Z,19.33
2018-08-20T11:18:57.922Z,21.23
2018-08-20T11:24:07.949Z,19.67
2018-08-20T11:29:18.554Z,19.13
2018-08-20T11:34:28.620Z,17.33
2018-08-20T11:39:38.731Z,17.17
2018-08-20T11:44:48.744Z,30.07
2018-08-20T11:49:58.836Z,16.07
2018-08-20T11:55:08.937Z,19.07
2018-08-20T12:00:18.955Z,15.40
2018-08-20T12:05:29.190Z,21.90
2018-08-20T12:10:39.209Z,16.63
2018-08-20T12:15:49.492Z,20.20
2018-08-20T12:20:59.577Z,20.00
2018-08-20T12:26:09.981Z,15.27
2018-08-20T12:31:20.067Z,17.57
2018-08-20T12:36:30.220Z,18.10
2018-08-20T12:41:40.299Z,15.00
2018-08-20T12:46:50.406Z,19.70
2018-08-20T12:52:00.696Z,25.67
2018-08-20T12:57:10.623Z,21.50
2018-08-20T13:02:20.677Z,33.73
2018-08-20T13:07:30.707Z,34.17
2018-08-20T13:12:40.870Z,31.53
2018-08-20T13:17:50.992Z,19.67
2018-08-20T13:23:01.073Z,30.87
2018-08-20T13:28:11.035Z,16.23
2018-08-20T13:33:21.093Z,17.00
2018-08-20T13:38:31.270Z,14.07
2018-08-20T13:43:41.319Z,11.90
2018-08-20T13:48:51.477Z,19.30
2018-08-20T13:54:01.353Z,13.83
2018-08-20T13:59:11.444Z,12.73
2018-08-20T14:04:21.640Z,13.33
2018-08-20T14:09:31.703Z,14.00
2018-08-20T14:14:41.801Z,11.03
2018-08-20T14:19:51.844Z,17.90
2018-08-20T14:25:01.922Z,15.63
2018-08-20T14:30:13.911Z,12.07
2018-08-20T14:35:23.783Z,9.13
2018-08-20T14:40:33.864Z,16.73
2018-08-20T14:45:49.323Z,12.20
2018-08-20T14:50:59.302Z,10.63
2018-08-20T14:56:09.129Z,8.73
2018-08-20T15:01:19.050Z,8.73
2018-08-20T15:06:28.996Z,4.27
2018-08-20T15:11:39.519Z,4.43
2018-08-20T15:16:49.408Z,3.23
2018-08-20T15:21:59.415Z,3.27
2018-08-20T15:27:09.355Z,2.33
2018-08-20T15:32:19.455Z,3.03
2018-08-20T15:37:29.404Z,1.90
2018-08-20T15:42:39.451Z,3.93
2018-08-20T15:47:49.572Z,4.93
2018-08-20T15:52:59.640Z,5.80
2018-08-20T15:58:09.537Z,2.07
2018-08-20T16:03:19.559Z,2.47
2018-08-20T16:08:29.408Z,2.67
2018-08-20T16:13:39.497Z,3.63
2018-08-20T16:18:49.543Z,1.97
2018-08-20T16:23:59.486Z,2.73
2018-08-20T16:29:09.612Z,3.17
2018-08-20T16:34:19.671Z,3.47
2018-08-20T16:39:30.103Z,3.57
2018-08-20T16:44:40.080Z,4.97
2018-08-20T16:49:49.909Z,4.83
2018-08-20T16:55:00.699Z,5.10
2018-08-20T17:00:11.930Z,3.63
2018-08-20T17:05:21.949Z,1.63
2018-08-20T17:10:31.989Z,1.53
2018-08-20T17:15:42.004Z,1.87
2018-08-20T17:20:52.023Z,5.40
2018-08-20T17:26:01.999Z,2.97
2018-08-20T17:31:13.513Z,3.13
2018-08-20T17:36:23.332Z,4.73
2018-08-20T17:41:33.372Z,2.60
2018-08-20T17:46:43.510Z,3.00
2018-08-20T17:51:53.468Z,4.03
2018-08-20T17:57:03.519Z,2.40
2018-08-20T18:02:18.871Z,2.30
2018-08-20T18:07:31.796Z,1.77
2018-08-20T18:12:41.670Z,2.53
2018-08-20T18:17:51.894Z,3.80
2018-08-20T18:23:01.896Z,3.80
2018-08-20T18:28:12.004Z,2.63
2018-08-20T18:33:21.928Z,4.37
2018-08-20T18:38:32.976Z,1.67
2018-08-20T18:43:43.842Z,4.40
2018-08-20T18:48:53.776Z,4.17
2018-08-20T18:54:03.707Z,3.50
2018-08-20T18:59:13.545Z,3.47
2018-08-20T19:04:23.490Z,4.53
2018-08-20T19:09:33.318Z,2.23
2018-08-20T19:14:43.278Z,2.70
2018-08-20T19:19:53.230Z,2.97
2018-08-20T19:25:03.455Z,2.83
2018-08-20T19:30:18.844Z,2.73
2018-08-20T19:35:28.923Z,3.10
2018-08-20T19:40:39.079Z,2.83
2018-08-20T19:45:48.955Z,4.80
2018-08-20T19:50:59.015Z,3.27
2018-08-20T19:56:12.110Z,2.87
2018-08-20T20:01:22.428Z,4.07
2018-08-20T20:06:32.295Z,3.53
2018-08-20T20:11:44.923Z,2.60
2018-08-20T20:16:55.348Z,3.70
2018-08-20T20:22:07.157Z,1.83
2018-08-20T20:27:17.051Z,3.20
2018-08-20T20:32:27.110Z,1.93
2018-08-20T20:37:37.116Z,3.97
2018-08-20T20:42:47.116Z,1.70
2018-08-20T20:47:57.249Z,2.17
2018-08-20T20:53:07.532Z,3.30
2018-08-20T20:58:36.340Z,2.33
2018-08-20T21:03:46.311Z,2.33
2018-08-20T21:08:58.262Z,2.33
2018-08-20T21:14:08.610Z,2.40
2018-08-20T21:19:18.701Z,2.07
2018-08-20T21:24:28.801Z,2.10
2018-08-20T21:29:38.775Z,2.37
2018-08-20T21:34:48.748Z,1.40
2018-08-20T21:39:58.967Z,2.80
2018-08-20T21:45:08.923Z,1.90
2018-08-20T21:50:19.111Z,3.60
2018-08-20T21:55:29.288Z,2.37
2018-08-20T22:00:39.259Z,2.60
2018-08-20T22:05:49.327Z,1.97
2018-08-20T22:10:59.607Z,3.43
2018-08-20T22:16:21.463Z,2.20
2018-08-20T22:21:31.568Z,1.67
2018-08-20T22:26:50.133Z,1.80
2018-08-20T22:32:00.336Z,1.30
2018-08-20T22:37:10.598Z,1.80
2018-08-20T22:42:34.975Z,2.07
2018-08-20T22:47:45.876Z,1.67
2018-08-20T22:52:56.043Z,2.53
2018-08-20T22:58:10.707Z,1.60
2018-08-20T23:03:20.776Z,1.80
2018-08-20T23:08:31.780Z,1.50
2018-08-20T23:13:41.778Z,1.40
2018-08-20T23:18:51.808Z,1.87
2018-08-20T23:24:01.921Z,1.80
2018-08-20T23:29:12.254Z,1.50
2018-08-20T23:34:22.447Z,1.40
2018-08-20T23:39:32.492Z,1.40
2018-08-20T23:44:42.527Z,3.20
2018-08-20T23:49:52.516Z,2.73
2018-08-20T23:55:02.596Z,2.30
